sensor_id;sensor_type;location;lat;lon;timestamp;temperature;humidity
10662;DHT22;5379;51.034;7.006;2022-10-16T00:01:20;18.90;99.90
10662;DHT22;5379;51.034;7.006;2022-10-16T00:03:48;18.90;99.90
10662;DHT22;5379;51.034;7.006;2022-10-16T00:06:16;18.80;99.90
10662;DHT22;5379;51.034;7.006;2022-10-16T00:08:44;18.80;99.90
10662;DHT22;5379;51.034;7.006;2022-10-16T00:11:14;18.80;99.90
10662;DHT22;5379;51.034;7.006;2022-10-16T00:13:45;18.80;99.90
10662;DHT22;5379;51.034;7.006;2022-10-16T00:16:13;18.80;99.90
10662;DHT22;5379;51.034;7.006;2022-10-16T00:18:41;18.80;99.90
10662;DHT22;5379;51.034;7.006;2022-10-16T00:21:10;18.80;99.90
10662;DHT22;5379;51.034;7.006;2022-10-16T00:23:38;18.80;99.90
10662;DHT22;5379;51.034;7.006;2022-10-16T00:26:07;18.80;99.90
10662;DHT22;5379;51.034;7.006;2022-10-16T00:28:35;18.80;99.90
10662;DHT22;5379;51.034;7.006;2022-10-16T00:31:05;18.80;99.90
10662;DHT22;5379;51.034;7.006;2022-10-16T00:33:33;18.80;99.90
10662;DHT22;5379;51.034;7.006;2022-10-16T00:36:00;18.90;99.90
10662;DHT22;5379;51.034;7.006;2022-10-16T00:38:27;18.90;99.90
10662;DHT22;5379;51.034;7.006;2022-10-16T00:40:54;18.90;99.90
10662;DHT22;5379;51.034;7.006;2022-10-16T00:43:37;18.90;99.90
10662;DHT22;5379;51.034;7.006;2022-10-16T00:46:11;18.90;99.90
10662;DHT22;5379;51.034;7.006;2022-10-16T00:48:39;18.90;99.90
10662;DHT22;5379;51.034;7.006;2022-10-16T00:51:07;18.80;99.90
10662;DHT22;5379;51.034;7.006;2022-10-16T00:53:35;18.80;99.90
10662;DHT22;5379;51.034;7.006;2022-10-16T00:56:04;18.70;99.90
10662;DHT22;5379;51.034;7.006;2022-10-16T00:58:31;20.10;99.90
10662;DHT22;5379;51.034;7.006;2022-10-16T01:00:58;18.60;99.90
10662;DHT22;5379;51.034;7.006;2022-10-16T01:03:29;18.60;99.90
10662;DHT22;5379;51.034;7.006;2022-10-16T01:06:05;18.60;99.90
10662;DHT22;5379;51.034;7.006;2022-10-16T01:08:42;18.50;99.90
10662;DHT22;5379;51.034;7.006;2022-10-16T01:11:17;18.50;99.90
10662;DHT22;5379;51.034;7.006;2022-10-16T01:13:51;18.50;99.90
10662;DHT22;5379;51.034;7.006;2022-10-16T01:16:28;18.50;99.90
10662;DHT22;5379;51.034;7.006;2022-10-16T01:19:04;18.60;99.90
10662;DHT22;5379;51.034;7.006;2022-10-16T01:21:35;18.60;99.90
10662;DHT22;5379;51.034;7.006;2022-10-16T01:24:08;18.60;99.90
10662;DHT22;5379;51.034;7.006;2022-10-16T01:26:50;18.60;99.90
10662;DHT22;5379;51.034;7.006;2022-10-16T01:29:23;18.60;99.90
10662;DHT22;5379;51.034;7.006;2022-10-16T01:31:55;18.60;99.90
10662;DHT22;5379;51.034;7.006;2022-10-16T01:34:25;18.70;99.90
10662;DHT22;5379;51.034;7.006;2022-10-16T01:36:59;18.70;99.90
10662;DHT22;5379;51.034;7.006;2022-10-16T01:39:31;18.70;99.90
10662;DHT22;5379;51.034;7.006;2022-10-16T01:42:02;18.60;99.90
10662;DHT22;5379;51.034;7.006;2022-10-16T01:44:33;18.70;99.90
10662;DHT22;5379;51.034;7.006;2022-10-16T01:47:02;18.60;99.90
10662;DHT22;5379;51.034;7.006;2022-10-16T01:49:33;18.60;99.90
10662;DHT22;5379;51.034;7.006;2022-10-16T01:52:03;18.70;99.90
10662;DHT22;5379;51.034;7.006;2022-10-16T01:54:33;18.60;99.90
10662;DHT22;5379;51.034;7.006;2022-10-16T01:57:01;18.60;99.90
10662;DHT22;5379;51.034;7.006;2022-10-16T01:59:35;18.60;99.90
10662;DHT22;5379;51.034;7.006;2022-10-16T02:02:07;18.60;99.90
10662;DHT22;5379;51.034;7.006;2022-10-16T02:04:39;18.60;99.90
10662;DHT22;5379;51.034;7.006;2022-10-16T02:07:07;18.60;99.90
10662;DHT22;5379;51.034;7.006;2022-10-16T02:09:34;18.70;99.90
10662;DHT22;5379;51.034;7.006;2022-10-16T02:12:06;18.70;99.90
10662;DHT22;5379;51.034;7.006;2022-10-16T02:14:39;18.70;99.90
10662;DHT22;5379;51.034;7.006;2022-10-16T02:17:11;18.70;99.90
10662;DHT22;5379;51.034;7.006;2022-10-16T02:19:38;18.70;99.90
10662;DHT22;5379;51.034;7.006;2022-10-16T02:22:08;18.70;99.90
10662;DHT22;5379;51.034;7.006;2022-10-16T02:24:39;18.60;99.90
10662;DHT22;5379;51.034;7.006;2022-10-16T02:27:12;18.60;99.90
10662;DHT22;5379;51.034;7.006;2022-10-16T02:29:46;18.60;99.90
10662;DHT22;5379;51.034;7.006;2022-10-16T02:32:19;18.60;99.90
10662;DHT22;5379;51.034;7.006;2022-10-16T02:34:48;18.60;99.90
10662;DHT22;5379;51.034;7.006;2022-10-16T02:37:16;18.60;99.90
10662;DHT22;5379;51.034;7.006;2022-10-16T02:39:44;18.60;99.90
10662;DHT22;5379;51.034;7.006;2022-10-16T02:42:11;18.50;99.90
10662;DHT22;5379;51.034;7.006;2022-10-16T02:44:39;18.50;99.90
10662;DHT22;5379;51.034;7.006;2022-10-16T02:47:07;18.60;99.90
10662;DHT22;5379;51.034;7.006;2022-10-16T02:49:34;18.60;99.90
10662;DHT22;5379;51.034;7.006;2022-10-16T02:52:01;18.60;99.90
10662;DHT22;5379;51.034;7.006;2022-10-16T02:54:28;18.60;99.90
10662;DHT22;5379;51.034;7.006;2022-10-16T02:56:55;18.60;99.90
10662;DHT22;5379;51.034;7.006;2022-10-16T02:59:22;18.60;99.90
10662;DHT22;5379;51.034;7.006;2022-10-16T03:01:49;18.50;99.90
10662;DHT22;5379;51.034;7.006;2022-10-16T03:04:17;18.50;99.90
10662;DHT22;5379;51.034;7.006;2022-10-16T03:06:44;18.50;99.90
10662;DHT22;5379;51.034;7.006;2022-10-16T03:09:11;18.50;99.90
10662;DHT22;5379;51.034;7.006;2022-10-16T03:11:38;18.50;99.90
10662;DHT22;5379;51.034;7.006;2022-10-16T03:14:05;18.60;99.90
10662;DHT22;5379;51.034;7.006;2022-10-16T03:16:33;18.50;99.90
10662;DHT22;5379;51.034;7.006;2022-10-16T03:18:59;18.50;99.90
10662;DHT22;5379;51.034;7.006;2022-10-16T03:21:28;18.50;99.90
10662;DHT22;5379;51.034;7.006;2022-10-16T03:23:55;18.50;99.90
10662;DHT22;5379;51.034;7.006;2022-10-16T03:26:22;18.50;99.90
10662;DHT22;5379;51.034;7.006;2022-10-16T03:28:49;18.50;99.90
10662;DHT22;5379;51.034;7.006;2022-10-16T03:31:16;18.30;99.90
10662;DHT22;5379;51.034;7.006;2022-10-16T03:33:43;18.30;99.90
10662;DHT22;5379;51.034;7.006;2022-10-16T03:36:10;18.30;99.90
10662;DHT22;5379;51.034;7.006;2022-10-16T03:38:38;18.30;99.90
10662;DHT22;5379;51.034;7.006;2022-10-16T03:41:05;18.30;99.90
10662;DHT22;5379;51.034;7.006;2022-10-16T03:43:33;18.30;99.90
10662;DHT22;5379;51.034;7.006;2022-10-16T03:46:00;18.30;99.90
10662;DHT22;5379;51.034;7.006;2022-10-16T03:48:27;18.20;99.90
10662;DHT22;5379;51.034;7.006;2022-10-16T03:50:54;18.20;99.90
10662;DHT22;5379;51.034;7.006;2022-10-16T03:53:21;18.30;99.90
10662;DHT22;5379;51.034;7.006;2022-10-16T03:55:49;18.30;99.90
10662;DHT22;5379;51.034;7.006;2022-10-16T03:58:16;18.30;99.90
10662;DHT22;5379;51.034;7.006;2022-10-16T04:00:44;18.20;99.90
10662;DHT22;5379;51.034;7.006;2022-10-16T04:03:11;18.20;99.90
10662;DHT22;5379;51.034;7.006;2022-10-16T04:05:39;18.20;99.90
10662;DHT22;5379;51.034;7.006;2022-10-16T04:08:06;18.20;99.90
10662;DHT22;5379;51.034;7.006;2022-10-16T04:10:33;18.30;99.90
10662;DHT22;5379;51.034;7.006;2022-10-16T04:13:02;18.30;99.90
10662;DHT22;5379;51.034;7.006;2022-10-16T04:15:29;18.30;99.90
10662;DHT22;5379;51.034;7.006;2022-10-16T04:17:56;18.30;99.90
10662;DHT22;5379;51.034;7.006;2022-10-16T04:20:23;18.40;99.90
10662;DHT22;5379;51.034;7.006;2022-10-16T04:22:50;18.40;99.90
10662;DHT22;5379;51.034;7.006;2022-10-16T04:25:17;18.40;99.90
10662;DHT22;5379;51.034;7.006;2022-10-16T04:27:44;18.40;99.90
10662;DHT22;5379;51.034;7.006;2022-10-16T04:30:13;18.40;99.90
10662;DHT22;5379;51.034;7.006;2022-10-16T04:32:40;18.40;99.90
10662;DHT22;5379;51.034;7.006;2022-10-16T04:35:07;18.30;99.90
10662;DHT22;5379;51.034;7.006;2022-10-16T04:37:34;18.40;99.90
10662;DHT22;5379;51.034;7.006;2022-10-16T04:40:02;18.40;99.90
10662;DHT22;5379;51.034;7.006;2022-10-16T04:42:29;18.50;99.90
10662;DHT22;5379;51.034;7.006;2022-10-16T04:44:56;18.40;99.90
10662;DHT22;5379;51.034;7.006;2022-10-16T04:47:24;18.40;99.90
10662;DHT22;5379;51.034;7.006;2022-10-16T04:49:51;18.40;99.90
10662;DHT22;5379;51.034;7.006;2022-10-16T04:52:18;18.40;99.90
10662;DHT22;5379;51.034;7.006;2022-10-16T04:54:47;18.30;99.90
10662;DHT22;5379;51.034;7.006;2022-10-16T04:57:15;18.30;99.90
10662;DHT22;5379;51.034;7.006;2022-10-16T04:59:42;18.30;99.90
10662;DHT22;5379;51.034;7.006;2022-10-16T05:02:09;18.30;99.90
10662;DHT22;5379;51.034;7.006;2022-10-16T05:04:38;18.30;99.90
10662;DHT22;5379;51.034;7.006;2022-10-16T05:07:05;18.30;99.90
10662;DHT22;5379;51.034;7.006;2022-10-16T05:09:32;18.20;99.90
10662;DHT22;5379;51.034;7.006;2022-10-16T05:11:59;18.20;99.90
10662;DHT22;5379;51.034;7.006;2022-10-16T05:14:26;18.20;99.90
10662;DHT22;5379;51.034;7.006;2022-10-16T05:16:52;18.20;99.90
10662;DHT22;5379;51.034;7.006;2022-10-16T05:19:20;18.20;99.90
10662;DHT22;5379;51.034;7.006;2022-10-16T05:21:48;18.20;99.90
10662;DHT22;5379;51.034;7.006;2022-10-16T05:24:16;18.20;99.90
10662;DHT22;5379;51.034;7.006;2022-10-16T05:26:43;18.10;99.90
10662;DHT22;5379;51.034;7.006;2022-10-16T05:29:10;18.10;99.90
10662;DHT22;5379;51.034;7.006;2022-10-16T05:31:37;18.10;99.90
10662;DHT22;5379;51.034;7.006;2022-10-16T05:34:04;18.10;99.90
10662;DHT22;5379;51.034;7.006;2022-10-16T05:36:31;18.10;99.90
10662;DHT22;5379;51.034;7.006;2022-10-16T05:38:59;17.80;99.90
10662;DHT22;5379;51.034;7.006;2022-10-16T05:41:26;17.60;99.90
10662;DHT22;5379;51.034;7.006;2022-10-16T05:43:53;17.40;99.90
10662;DHT22;5379;51.034;7.006;2022-10-16T05:46:20;17.30;99.90
10662;DHT22;5379;51.034;7.006;2022-10-16T05:48:47;17.40;99.90
10662;DHT22;5379;51.034;7.006;2022-10-16T05:51:14;17.40;99.90
10662;DHT22;5379;51.034;7.006;2022-10-16T05:53:42;17.30;99.90
10662;DHT22;5379;51.034;7.006;2022-10-16T05:56:11;17.40;99.90
10662;DHT22;5379;51.034;7.006;2022-10-16T05:58:39;17.40;99.90
10662;DHT22;5379;51.034;7.006;2022-10-16T06:01:10;17.50;99.90
10662;DHT22;5379;51.034;7.006;2022-10-16T06:03:37;17.40;99.90
10662;DHT22;5379;51.034;7.006;2022-10-16T06:06:08;17.40;99.90
10662;DHT22;5379;51.034;7.006;2022-10-16T06:08:36;17.50;99.90
10662;DHT22;5379;51.034;7.006;2022-10-16T06:11:04;17.60;99.90
10662;DHT22;5379;51.034;7.006;2022-10-16T06:13:35;17.60;99.90
10662;DHT22;5379;51.034;7.006;2022-10-16T06:16:03;17.50;99.90
10662;DHT22;5379;51.034;7.006;2022-10-16T06:18:30;17.50;99.90
10662;DHT22;5379;51.034;7.006;2022-10-16T06:20:57;17.50;99.90
10662;DHT22;5379;51.034;7.006;2022-10-16T06:23:25;17.50;99.90
10662;DHT22;5379;51.034;7.006;2022-10-16T06:25:52;17.50;99.90
10662;DHT22;5379;51.034;7.006;2022-10-16T06:28:19;17.50;99.90
10662;DHT22;5379;51.034;7.006;2022-10-16T06:30:47;17.60;99.90
10662;DHT22;5379;51.034;7.006;2022-10-16T06:33:14;17.50;99.90
10662;DHT22;5379;51.034;7.006;2022-10-16T06:35:41;17.60;99.90
10662;DHT22;5379;51.034;7.006;2022-10-16T06:38:08;17.60;99.90
10662;DHT22;5379;51.034;7.006;2022-10-16T06:40:35;17.60;99.90
10662;DHT22;5379;51.034;7.006;2022-10-16T06:43:02;17.70;99.90
10662;DHT22;5379;51.034;7.006;2022-10-16T06:45:29;17.70;99.90
10662;DHT22;5379;51.034;7.006;2022-10-16T06:47:57;17.70;99.90
10662;DHT22;5379;51.034;7.006;2022-10-16T06:50:24;17.70;99.90
10662;DHT22;5379;51.034;7.006;2022-10-16T06:52:51;17.80;99.90
10662;DHT22;5379;51.034;7.006;2022-10-16T06:55:18;17.80;99.90
10662;DHT22;5379;51.034;7.006;2022-10-16T06:57:47;17.90;99.90
10662;DHT22;5379;51.034;7.006;2022-10-16T07:00:14;17.90;99.90
10662;DHT22;5379;51.034;7.006;2022-10-16T07:02:41;18.00;99.90
10662;DHT22;5379;51.034;7.006;2022-10-16T07:05:09;18.00;99.90
10662;DHT22;5379;51.034;7.006;2022-10-16T07:07:36;18.20;99.90
10662;DHT22;5379;51.034;7.006;2022-10-16T07:10:04;18.20;99.90
10662;DHT22;5379;51.034;7.006;2022-10-16T07:12:31;18.20;99.90
10662;DHT22;5379;51.034;7.006;2022-10-16T07:14:58;18.30;99.90
10662;DHT22;5379;51.034;7.006;2022-10-16T07:17:25;18.40;99.90
10662;DHT22;5379;51.034;7.006;2022-10-16T07:19:52;18.40;99.90
10662;DHT22;5379;51.034;7.006;2022-10-16T07:22:22;18.50;99.90
10662;DHT22;5379;51.034;7.006;2022-10-16T07:24:49;18.50;99.90
10662;DHT22;5379;51.034;7.006;2022-10-16T07:27:17;18.60;99.90
10662;DHT22;5379;51.034;7.006;2022-10-16T07:29:44;18.70;99.90
10662;DHT22;5379;51.034;7.006;2022-10-16T07:32:11;18.70;99.90
10662;DHT22;5379;51.034;7.006;2022-10-16T07:34:38;18.70;99.90
10662;DHT22;5379;51.034;7.006;2022-10-16T07:37:05;18.70;99.90
10662;DHT22;5379;51.034;7.006;2022-10-16T07:39:33;18.70;99.90
10662;DHT22;5379;51.034;7.006;2022-10-16T07:42:00;18.80;99.90
10662;DHT22;5379;51.034;7.006;2022-10-16T07:44:27;18.80;99.90
10662;DHT22;5379;51.034;7.006;2022-10-16T07:46:54;18.80;99.90
10662;DHT22;5379;51.034;7.006;2022-10-16T07:49:21;18.80;99.90
10662;DHT22;5379;51.034;7.006;2022-10-16T07:51:48;18.90;99.90
10662;DHT22;5379;51.034;7.006;2022-10-16T07:54:15;18.90;99.90
10662;DHT22;5379;51.034;7.006;2022-10-16T07:56:44;18.90;99.90
10662;DHT22;5379;51.034;7.006;2022-10-16T07:59:11;18.90;99.90
10662;DHT22;5379;51.034;7.006;2022-10-16T08:01:38;18.90;99.90
10662;DHT22;5379;51.034;7.006;2022-10-16T08:04:08;18.90;99.90
10662;DHT22;5379;51.034;7.006;2022-10-16T08:06:36;18.90;99.90
10662;DHT22;5379;51.034;7.006;2022-10-16T08:09:04;19.00;99.90
10662;DHT22;5379;51.034;7.006;2022-10-16T08:11:31;19.10;99.90
10662;DHT22;5379;51.034;7.006;2022-10-16T08:14:00;19.10;99.90
10662;DHT22;5379;51.034;7.006;2022-10-16T08:16:27;19.20;99.90
10662;DHT22;5379;51.034;7.006;2022-10-16T08:18:54;19.30;99.90
10662;DHT22;5379;51.034;7.006;2022-10-16T08:21:23;19.30;99.90
10662;DHT22;5379;51.034;7.006;2022-10-16T08:23:52;19.50;99.90
10662;DHT22;5379;51.034;7.006;2022-10-16T08:26:20;19.60;99.90
10662;DHT22;5379;51.034;7.006;2022-10-16T08:28:50;19.70;99.90
10662;DHT22;5379;51.034;7.006;2022-10-16T08:31:19;19.80;99.90
10662;DHT22;5379;51.034;7.006;2022-10-16T08:33:46;19.90;99.90
10662;DHT22;5379;51.034;7.006;2022-10-16T08:36:14;19.90;99.90
10662;DHT22;5379;51.034;7.006;2022-10-16T08:38:41;20.00;99.90
10662;DHT22;5379;51.034;7.006;2022-10-16T08:41:45;20.10;99.90
10662;DHT22;5379;51.034;7.006;2022-10-16T08:44:26;20.20;99.90
10662;DHT22;5379;51.034;7.006;2022-10-16T08:47:04;20.20;99.90
10662;DHT22;5379;51.034;7.006;2022-10-16T08:49:35;20.30;99.90
10662;DHT22;5379;51.034;7.006;2022-10-16T08:52:03;20.40;99.90
10662;DHT22;5379;51.034;7.006;2022-10-16T08:54:34;20.50;99.90
10662;DHT22;5379;51.034;7.006;2022-10-16T08:57:09;20.70;99.90
10662;DHT22;5379;51.034;7.006;2022-10-16T08:59:37;20.80;99.90
10662;DHT22;5379;51.034;7.006;2022-10-16T09:02:21;20.90;99.90
10662;DHT22;5379;51.034;7.006;2022-10-16T09:05:08;21.00;99.90
10662;DHT22;5379;51.034;7.006;2022-10-16T09:07:48;21.10;99.90
10662;DHT22;5379;51.034;7.006;2022-10-16T09:10:27;21.10;99.90
10662;DHT22;5379;51.034;7.006;2022-10-16T09:13:03;21.10;99.90
10662;DHT22;5379;51.034;7.006;2022-10-16T09:15:42;21.20;99.90
10662;DHT22;5379;51.034;7.006;2022-10-16T09:18:15;21.20;99.90
10662;DHT22;5379;51.034;7.006;2022-10-16T09:20:49;21.30;99.90
10662;DHT22;5379;51.034;7.006;2022-10-16T09:23:21;21.30;99.90
10662;DHT22;5379;51.034;7.006;2022-10-16T09:25:50;21.30;99.90
10662;DHT22;5379;51.034;7.006;2022-10-16T09:28:18;21.40;99.90
10662;DHT22;5379;51.034;7.006;2022-10-16T09:30:46;21.50;99.90
10662;DHT22;5379;51.034;7.006;2022-10-16T09:33:17;21.70;99.90
10662;DHT22;5379;51.034;7.006;2022-10-16T09:35:46;21.70;99.90
10662;DHT22;5379;51.034;7.006;2022-10-16T09:38:26;21.60;99.90
10662;DHT22;5379;51.034;7.006;2022-10-16T09:40:54;21.50;99.90
10662;DHT22;5379;51.034;7.006;2022-10-16T09:43:24;21.50;99.90
10662;DHT22;5379;51.034;7.006;2022-10-16T09:45:54;21.40;99.90
10662;DHT22;5379;51.034;7.006;2022-10-16T09:48:26;21.50;99.90
10662;DHT22;5379;51.034;7.006;2022-10-16T09:50:58;21.60;99.90
10662;DHT22;5379;51.034;7.006;2022-10-16T09:53:37;21.60;99.90
10662;DHT22;5379;51.034;7.006;2022-10-16T09:56:05;21.60;99.90
10662;DHT22;5379;51.034;7.006;2022-10-16T09:58:32;21.70;99.90
10662;DHT22;5379;51.034;7.006;2022-10-16T10:01:00;21.80;99.90
10662;DHT22;5379;51.034;7.006;2022-10-16T10:03:39;21.70;99.90
10662;DHT22;5379;51.034;7.006;2022-10-16T10:06:17;21.80;99.90
10662;DHT22;5379;51.034;7.006;2022-10-16T10:09:00;21.90;99.90
10662;DHT22;5379;51.034;7.006;2022-10-16T10:11:44;22.00;99.90
10662;DHT22;5379;51.034;7.006;2022-10-16T10:14:23;21.90;99.90
10662;DHT22;5379;51.034;7.006;2022-10-16T10:16:51;21.90;99.90
10662;DHT22;5379;51.034;7.006;2022-10-16T10:19:21;22.00;99.90
10662;DHT22;5379;51.034;7.006;2022-10-16T10:21:50;22.20;99.90
10662;DHT22;5379;51.034;7.006;2022-10-16T10:24:19;22.00;99.90
10662;DHT22;5379;51.034;7.006;2022-10-16T10:26:53;22.20;99.90
10662;DHT22;5379;51.034;7.006;2022-10-16T10:29:39;22.20;99.90
10662;DHT22;5379;51.034;7.006;2022-10-16T10:32:20;22.20;99.90
10662;DHT22;5379;51.034;7.006;2022-10-16T10:35:01;22.30;99.90
10662;DHT22;5379;51.034;7.006;2022-10-16T10:37:55;22.30;99.90
10662;DHT22;5379;51.034;7.006;2022-10-16T10:40:37;22.30;99.90
10662;DHT22;5379;51.034;7.006;2022-10-16T10:43:13;22.30;99.90
10662;DHT22;5379;51.034;7.006;2022-10-16T10:45:46;22.30;99.90
10662;DHT22;5379;51.034;7.006;2022-10-16T10:48:24;22.30;99.90
10662;DHT22;5379;51.034;7.006;2022-10-16T10:50:57;22.40;99.90
10662;DHT22;5379;51.034;7.006;2022-10-16T10:53:36;22.40;99.90
10662;DHT22;5379;51.034;7.006;2022-10-16T10:56:16;22.30;99.90
10662;DHT22;5379;51.034;7.006;2022-10-16T10:58:57;22.50;99.90
10662;DHT22;5379;51.034;7.006;2022-10-16T11:01:32;22.60;99.90
10662;DHT22;5379;51.034;7.006;2022-10-16T11:06:57;22.50;99.90
10662;DHT22;5379;51.034;7.006;2022-10-16T11:09:27;22.50;99.90
10662;DHT22;5379;51.034;7.006;2022-10-16T11:11:59;22.60;99.90
10662;DHT22;5379;51.034;7.006;2022-10-16T11:14:30;22.80;99.90
10662;DHT22;5379;51.034;7.006;2022-10-16T11:17:01;22.70;99.90
10662;DHT22;5379;51.034;7.006;2022-10-16T11:19:36;22.80;99.90
10662;DHT22;5379;51.034;7.006;2022-10-16T11:22:11;22.80;99.90
10662;DHT22;5379;51.034;7.006;2022-10-16T11:24:44;22.80;99.90
10662;DHT22;5379;51.034;7.006;2022-10-16T11:27:15;22.80;99.90
10662;DHT22;5379;51.034;7.006;2022-10-16T11:29:49;22.80;99.90
10662;DHT22;5379;51.034;7.006;2022-10-16T11:32:22;22.80;99.90
10662;DHT22;5379;51.034;7.006;2022-10-16T11:34:53;22.80;99.90
10662;DHT22;5379;51.034;7.006;2022-10-16T11:37:28;22.90;99.90
10662;DHT22;5379;51.034;7.006;2022-10-16T11:40:03;23.00;99.90
10662;DHT22;5379;51.034;7.006;2022-10-16T11:42:39;23.00;99.90
10662;DHT22;5379;51.034;7.006;2022-10-16T11:45:15;23.10;99.90
10662;DHT22;5379;51.034;7.006;2022-10-16T11:47:53;23.10;99.90
10662;DHT22;5379;51.034;7.006;2022-10-16T11:50:25;23.20;99.90
10662;DHT22;5379;51.034;7.006;2022-10-16T11:52:58;23.30;99.90
10662;DHT22;5379;51.034;7.006;2022-10-16T11:55:30;23.30;99.90
10662;DHT22;5379;51.034;7.006;2022-10-16T11:58:00;23.30;99.90
10662;DHT22;5379;51.034;7.006;2022-10-16T12:00:33;23.40;99.90
10662;DHT22;5379;51.034;7.006;2022-10-16T12:03:08;23.50;99.90
10662;DHT22;5379;51.034;7.006;2022-10-16T12:05:52;23.30;99.90
10662;DHT22;5379;51.034;7.006;2022-10-16T12:08:21;23.40;99.90
10662;DHT22;5379;51.034;7.006;2022-10-16T12:10:48;23.40;99.90
10662;DHT22;5379;51.034;7.006;2022-10-16T12:13:29;23.40;99.90
10662;DHT22;5379;51.034;7.006;2022-10-16T12:16:05;23.30;99.90
10662;DHT22;5379;51.034;7.006;2022-10-16T12:18:32;23.40;99.90
10662;DHT22;5379;51.034;7.006;2022-10-16T12:20:59;23.40;99.90
10662;DHT22;5379;51.034;7.006;2022-10-16T12:23:33;23.50;99.90
10662;DHT22;5379;51.034;7.006;2022-10-16T12:26:04;23.60;99.90
10662;DHT22;5379;51.034;7.006;2022-10-16T12:28:32;23.60;99.30
10662;DHT22;5379;51.034;7.006;2022-10-16T12:31:01;23.60;99.40
10662;DHT22;5379;51.034;7.006;2022-10-16T12:33:30;23.40;99.50
10662;DHT22;5379;51.034;7.006;2022-10-16T12:35:59;23.50;99.90
10662;DHT22;5379;51.034;7.006;2022-10-16T12:38:29;23.60;99.90
10662;DHT22;5379;51.034;7.006;2022-10-16T12:41:02;23.50;99.80
10662;DHT22;5379;51.034;7.006;2022-10-16T12:43:38;23.40;99.90
10662;DHT22;5379;51.034;7.006;2022-10-16T12:46:23;23.50;99.90
10662;DHT22;5379;51.034;7.006;2022-10-16T12:48:51;23.50;99.90
10662;DHT22;5379;51.034;7.006;2022-10-16T12:51:24;23.50;99.60
10662;DHT22;5379;51.034;7.006;2022-10-16T12:54:01;23.50;99.80
10662;DHT22;5379;51.034;7.006;2022-10-16T12:56:41;23.50;99.40
10662;DHT22;5379;51.034;7.006;2022-10-16T12:59:18;23.60;99.90
10662;DHT22;5379;51.034;7.006;2022-10-16T13:02:01;23.40;99.20
10662;DHT22;5379;51.034;7.006;2022-10-16T13:04:46;23.50;99.30
10662;DHT22;5379;51.034;7.006;2022-10-16T13:07:29;23.60;99.10
10662;DHT22;5379;51.034;7.006;2022-10-16T13:10:07;23.80;99.50
10662;DHT22;5379;51.034;7.006;2022-10-16T13:13:05;23.80;99.70
10662;DHT22;5379;51.034;7.006;2022-10-16T13:15:57;23.80;99.40
10662;DHT22;5379;51.034;7.006;2022-10-16T13:18:33;23.80;99.90
10662;DHT22;5379;51.034;7.006;2022-10-16T13:21:11;23.70;98.90
10662;DHT22;5379;51.034;7.006;2022-10-16T13:23:46;23.70;98.80
10662;DHT22;5379;51.034;7.006;2022-10-16T13:26:22;23.70;98.80
10662;DHT22;5379;51.034;7.006;2022-10-16T13:28:53;23.70;98.40
10662;DHT22;5379;51.034;7.006;2022-10-16T13:31:22;23.80;98.50
10662;DHT22;5379;51.034;7.006;2022-10-16T13:33:53;23.70;98.50
10662;DHT22;5379;51.034;7.006;2022-10-16T13:36:22;23.80;98.90
10662;DHT22;5379;51.034;7.006;2022-10-16T13:39:00;23.70;99.20
10662;DHT22;5379;51.034;7.006;2022-10-16T13:41:27;23.60;98.70
10662;DHT22;5379;51.034;7.006;2022-10-16T13:43:56;23.70;98.70
10662;DHT22;5379;51.034;7.006;2022-10-16T13:46:24;23.80;99.10
10662;DHT22;5379;51.034;7.006;2022-10-16T13:48:58;23.80;99.00
10662;DHT22;5379;51.034;7.006;2022-10-16T13:51:25;23.90;98.90
10662;DHT22;5379;51.034;7.006;2022-10-16T13:53:55;23.90;98.80
10662;DHT22;5379;51.034;7.006;2022-10-16T13:56:24;23.90;98.70
10662;DHT22;5379;51.034;7.006;2022-10-16T13:59:01;24.10;99.10
10662;DHT22;5379;51.034;7.006;2022-10-16T14:01:29;23.90;99.20
10662;DHT22;5379;51.034;7.006;2022-10-16T14:04:02;23.90;98.90
10662;DHT22;5379;51.034;7.006;2022-10-16T14:06:31;23.90;98.80
10662;DHT22;5379;51.034;7.006;2022-10-16T14:09:00;23.90;98.70
10662;DHT22;5379;51.034;7.006;2022-10-16T14:11:28;24.10;99.50
10662;DHT22;5379;51.034;7.006;2022-10-16T14:13:56;24.20;99.70
10662;DHT22;5379;51.034;7.006;2022-10-16T14:16:26;24.10;99.30
10662;DHT22;5379;51.034;7.006;2022-10-16T14:18:58;24.00;99.40
10662;DHT22;5379;51.034;7.006;2022-10-16T14:21:27;24.00;99.60
10662;DHT22;5379;51.034;7.006;2022-10-16T14:23:54;24.00;99.70
10662;DHT22;5379;51.034;7.006;2022-10-16T14:26:23;24.10;99.60
10662;DHT22;5379;51.034;7.006;2022-10-16T14:29:08;23.90;99.70
10662;DHT22;5379;51.034;7.006;2022-10-16T14:31:39;23.90;99.90
10662;DHT22;5379;51.034;7.006;2022-10-16T14:34:24;23.90;99.90
10662;DHT22;5379;51.034;7.006;2022-10-16T14:36:53;23.80;99.80
10662;DHT22;5379;51.034;7.006;2022-10-16T14:39:21;23.80;99.90
10662;DHT22;5379;51.034;7.006;2022-10-16T14:41:50;23.90;99.90
10662;DHT22;5379;51.034;7.006;2022-10-16T14:44:18;24.10;99.90
10662;DHT22;5379;51.034;7.006;2022-10-16T14:46:47;24.00;99.90
10662;DHT22;5379;51.034;7.006;2022-10-16T14:49:16;23.90;99.90
10662;DHT22;5379;51.034;7.006;2022-10-16T14:51:45;23.80;99.90
10662;DHT22;5379;51.034;7.006;2022-10-16T14:54:14;23.90;99.90
10662;DHT22;5379;51.034;7.006;2022-10-16T14:56:46;23.90;99.90
10662;DHT22;5379;51.034;7.006;2022-10-16T14:59:16;23.80;99.90
10662;DHT22;5379;51.034;7.006;2022-10-16T15:01:44;23.80;99.90
10662;DHT22;5379;51.034;7.006;2022-10-16T15:04:13;23.80;99.90
10662;DHT22;5379;51.034;7.006;2022-10-16T15:06:41;23.90;99.90
10662;DHT22;5379;51.034;7.006;2022-10-16T15:09:08;23.90;99.90
10662;DHT22;5379;51.034;7.006;2022-10-16T15:11:35;23.90;99.90
10662;DHT22;5379;51.034;7.006;2022-10-16T15:14:02;23.90;99.90
10662;DHT22;5379;51.034;7.006;2022-10-16T15:16:30;23.90;99.90
10662;DHT22;5379;51.034;7.006;2022-10-16T15:18:58;23.80;99.90
10662;DHT22;5379;51.034;7.006;2022-10-16T15:21:28;23.80;99.90
10662;DHT22;5379;51.034;7.006;2022-10-16T15:23:56;23.80;99.90
10662;DHT22;5379;51.034;7.006;2022-10-16T15:26:24;23.90;99.90
10662;DHT22;5379;51.034;7.006;2022-10-16T15:28:51;23.80;99.90
10662;DHT22;5379;51.034;7.006;2022-10-16T15:31:18;23.80;99.90
10662;DHT22;5379;51.034;7.006;2022-10-16T15:33:49;23.70;99.90
10662;DHT22;5379;51.034;7.006;2022-10-16T15:36:26;23.70;99.90
10662;DHT22;5379;51.034;7.006;2022-10-16T15:38:53;23.80;99.90
10662;DHT22;5379;51.034;7.006;2022-10-16T15:41:20;23.70;99.90
10662;DHT22;5379;51.034;7.006;2022-10-16T15:43:48;23.70;99.90
10662;DHT22;5379;51.034;7.006;2022-10-16T15:46:18;23.70;99.90
10662;DHT22;5379;51.034;7.006;2022-10-16T15:48:45;23.70;99.90
10662;DHT22;5379;51.034;7.006;2022-10-16T15:51:12;23.80;99.90
10662;DHT22;5379;51.034;7.006;2022-10-16T15:53:41;23.80;99.90
10662;DHT22;5379;51.034;7.006;2022-10-16T15:56:09;23.60;99.90
10662;DHT22;5379;51.034;7.006;2022-10-16T15:58:36;23.60;99.90
10662;DHT22;5379;51.034;7.006;2022-10-16T16:01:04;23.50;99.90
10662;DHT22;5379;51.034;7.006;2022-10-16T16:03:32;23.50;99.90
10662;DHT22;5379;51.034;7.006;2022-10-16T16:06:04;23.60;99.90
10662;DHT22;5379;51.034;7.006;2022-10-16T16:08:31;23.70;99.90